Time;durP1;ratioP1;P1;durP2;ratioP2;P2;SDS_P1;SDS_P2;PMS_P1;PMS_P2;Temp;Humidity;BMP_temperature;BMP_pressure;BME280_temperature;BME280_humidity;BME280_pressure;Samples;Min_cycle;Max_cycle;Signal;HPM_P1;HPM_P2
2022/01/18 00:01:10;;;;;;;27.90;15.43;;;5.10;99.90;;;;;;5066707;28;20437;-47
2022/01/18 00:03:36;;;;;;;29.07;17.17;;;5.00;99.90;;;;;;5061096;28;21026;-47
2022/01/18 00:06:01;;;;;;;32.13;17.13;;;5.00;99.90;;;;;;5065770;28;20187;-48
2022/01/18 00:08:27;;;;;;;27.17;16.67;;;4.90;99.90;;;;;;5043822;28;20285;-51
2022/01/18 00:10:53;;;;;;;29.00;15.97;;;4.90;99.90;;;;;;5064733;28;20190;-48
2022/01/18 00:18:36;;;;;;;29.40;16.87;;;5.00;99.90;;;;;;5063481;28;20787;-49
2022/01/18 00:23:35;;;;;;;28.07;17.60;;;5.00;99.90;;;;;;5061843;28;20641;-49
2022/01/18 00:26:06;;;;;;;35.47;19.27;;;5.00;99.90;;;;;;5061366;28;20556;-47
2022/01/18 00:28:32;;;;;;;30.73;15.17;;;5.00;99.90;;;;;;5058570;28;20496;-51
2022/01/18 00:36:38;;;;;;;37.30;19.17;;;5.10;99.90;;;;;;5060327;28;20448;-50
2022/01/18 00:39:06;;;;;;;26.07;17.73;;;5.10;99.90;;;;;;5062493;28;20452;-50
2022/01/18 00:41:32;;;;;;;29.73;17.63;;;5.10;99.90;;;;;;5062885;28;20438;-49
2022/01/18 00:43:58;;;;;;;26.63;16.47;;;5.10;99.90;;;;;;5061725;28;20427;-50
2022/01/18 00:46:24;;;;;;;31.07;19.10;;;5.10;99.90;;;;;;5046901;28;20934;-51
2022/01/18 00:48:54;;;;;;;29.37;17.13;;;5.10;99.90;;;;;;5059529;28;20234;-49
2022/01/18 00:51:19;;;;;;;27.00;17.77;;;5.20;99.90;;;;;;5066389;28;20415;-50
2022/01/18 00:53:46;;;;;;;26.57;16.57;;;5.20;99.90;;;;;;5059480;28;20429;-47
2022/01/18 00:58:39;;;;;;;30.53;18.73;;;5.20;99.90;;;;;;5045358;28;20491;-51
2022/01/18 01:01:05;;;;;;;26.43;16.37;;;5.20;99.90;;;;;;5062526;28;20475;-52
2022/01/18 01:03:31;;;;;;;32.13;17.97;;;5.20;99.90;;;;;;5062490;28;20414;-50
2022/01/18 01:05:57;;;;;;;31.37;16.30;;;5.20;99.90;;;;;;5058762;28;20452;-48
2022/01/18 01:08:22;;;;;;;30.30;16.53;;;5.20;99.90;;;;;;5065136;28;20609;-52
2022/01/18 01:10:48;;;;;;;26.33;15.90;;;5.20;99.90;;;;;;5031545;28;20998;-49
2022/01/18 01:13:14;;;;;;;26.53;15.97;;;5.20;99.90;;;;;;5060567;28;20418;-48
2022/01/18 01:16:42;;;;;;;32.13;17.80;;;5.10;99.90;;;;;;5059625;28;20214;-49
2022/01/18 01:19:04;;;;;;;27.80;16.73;;;5.10;99.90;;;;;;5049986;28;20864;-52
2022/01/18 01:35:31;;;;;;;32.27;17.90;;;5.30;99.90;;;;;;5058369;28;20456;-49
2022/01/18 01:45:46;;;;;;;28.50;16.13;;;5.30;99.90;;;;;;5062758;28;20448;-50
2022/01/18 01:48:12;;;;;;;27.90;16.93;;;5.30;99.90;;;;;;5059780;28;20544;-49
2022/01/18 01:50:51;;;;;;;26.20;15.90;;;5.20;99.90;;;;;;5046534;28;20450;-48
2022/01/18 01:53:22;;;;;;;36.53;17.10;;;5.30;99.90;;;;;;5060964;28;20228;-48
2022/01/18 01:55:49;;;;;;;28.57;18.10;;;5.30;99.90;;;;;;5042619;28;20468;-50
2022/01/18 01:58:16;;;;;;;31.83;17.50;;;5.30;99.90;;;;;;5061753;28;20466;-47
2022/01/18 02:00:46;;;;;;;27.90;17.83;;;5.40;99.90;;;;;;5060877;28;20489;-48
2022/01/18 02:03:13;;;;;;;32.43;17.13;;;5.40;99.90;;;;;;5058268;28;20430;-48
2022/01/18 02:05:39;;;;;;;34.17;17.97;;;5.40;99.90;;;;;;5060718;28;20772;-48
2022/01/18 02:08:07;;;;;;;26.47;15.13;;;5.40;99.90;;;;;;5058238;28;20482;-48
2022/01/18 02:10:35;;;;;;;27.03;16.43;;;5.40;99.90;;;;;;5060115;28;20550;-48
2022/01/18 02:13:01;;;;;;;28.27;17.43;;;5.40;99.90;;;;;;5059128;28;20945;-47
2022/01/18 02:15:27;;;;;;;32.17;18.20;;;5.50;99.90;;;;;;5058765;28;20421;-49
2022/01/18 02:23:26;;;;;;;27.07;17.10;;;5.50;99.90;;;;;;5062049;28;21239;-53
2022/01/18 02:25:51;;;;;;;32.77;18.40;;;5.50;99.90;;;;;;5057717;28;20443;-49
2022/01/18 02:28:19;;;;;;;23.47;16.57;;;5.50;99.90;;;;;;5060520;28;20462;-49
2022/01/18 02:30:45;;;;;;;26.50;16.33;;;5.50;99.90;;;;;;5063565;28;20777;-49
2022/01/18 02:33:11;;;;;;;27.90;16.63;;;5.50;99.90;;;;;;5058777;28;20424;-47
2022/01/18 02:35:37;;;;;;;24.47;15.10;;;5.60;99.90;;;;;;5061172;28;20512;-48
2022/01/18 02:38:05;;;;;;;26.47;14.93;;;5.70;99.90;;;;;;5061871;28;20504;-49
2022/01/18 02:40:32;;;;;;;25.60;16.40;;;5.60;99.90;;;;;;5061286;28;20483;-50
2022/01/18 02:43:02;;;;;;;32.30;16.07;;;5.60;99.90;;;;;;5060633;28;20417;-51
2022/01/18 02:45:28;;;;;;;26.37;17.30;;;5.70;99.90;;;;;;5056356;28;20441;-49
2022/01/18 02:47:54;;;;;;;24.77;15.17;;;5.60;99.90;;;;;;5061994;28;20469;-49
2022/01/18 02:50:24;;;;;;;25.70;14.53;;;5.60;99.90;;;;;;5060160;28;20502;-47
2022/01/18 02:52:49;;;;;;;23.53;15.40;;;5.60;99.90;;;;;;5060883;28;20437;-51
2022/01/18 02:55:15;;;;;;;27.50;17.00;;;5.70;99.90;;;;;;5060232;28;20459;-47
2022/01/18 02:57:53;;;;;;;25.10;16.40;;;5.70;99.90;;;;;;5058229;28;20226;-49
2022/01/18 03:00:28;;;;;;;26.60;16.53;;;5.80;99.90;;;;;;5061938;28;20214;-48
2022/01/18 03:03:16;;;;;;;32.33;17.27;;;5.90;99.90;;;;;;5044144;28;20440;-47
2022/01/18 03:05:44;;;;;;;26.17;15.30;;;5.80;99.90;;;;;;5058347;28;20425;-48
2022/01/18 03:08:11;;;;;;;27.07;14.47;;;5.80;99.90;;;;;;5062903;28;20496;-49
2022/01/18 03:10:39;;;;;;;27.13;16.83;;;5.70;99.90;;;;;;5058244;28;20497;-51
2022/01/18 03:13:05;;;;;;;28.73;18.17;;;5.70;99.90;;;;;;5063931;28;20439;-51
2022/01/18 03:15:33;;;;;;;24.90;14.93;;;5.80;99.90;;;;;;5042429;28;20451;-51
2022/01/18 03:18:00;;;;;;;25.43;15.73;;;5.90;99.90;;;;;;5059993;28;20888;-53
2022/01/18 03:20:26;;;;;;;23.97;14.70;;;5.90;99.90;;;;;;5060345;28;20460;-48
2022/01/18 03:22:52;;;;;;;25.13;15.40;;;6.00;99.90;;;;;;5042270;28;20815;-50
2022/01/18 03:25:28;;;;;;;23.27;14.13;;;6.10;99.90;;;;;;5060148;28;20429;-50
2022/01/18 03:28:05;;;;;;;20.40;14.23;;;6.00;99.90;;;;;;5064426;28;20547;-52
2022/01/18 03:30:35;;;;;;;26.07;14.80;;;5.90;99.90;;;;;;5065054;28;20792;-50
2022/01/18 03:33:03;;;;;;;20.80;15.43;;;5.80;99.90;;;;;;5066454;28;20537;-48
2022/01/18 03:35:29;;;;;;;28.37;17.00;;;5.90;99.90;;;;;;5059635;28;20467;-47
2022/01/18 03:37:54;;;;;;;22.97;13.80;;;6.00;99.90;;;;;;5065555;28;20422;-50
2022/01/18 03:40:20;;;;;;;19.40;13.80;;;6.20;99.90;;;;;;5063738;28;20291;-50
2022/01/18 03:42:47;;;;;;;23.10;14.20;;;6.20;99.90;;;;;;5061171;28;20555;-47
2022/01/18 03:45:29;;;;;;;25.00;15.20;;;6.30;99.90;;;;;;5062372;28;20429;-50
2022/01/18 03:47:57;;;;;;;19.33;13.50;;;6.30;99.90;;;;;;5043999;28;20871;-47
2022/01/18 03:50:23;;;;;;;24.20;14.60;;;6.10;99.90;;;;;;5065919;28;20498;-47
2022/01/18 03:52:49;;;;;;;20.10;13.33;;;6.30;99.90;;;;;;5064267;28;20425;-47
2022/01/18 03:55:18;;;;;;;25.10;14.30;;;6.30;99.90;;;;;;5061048;28;20961;-50
2022/01/18 03:57:44;;;;;;;25.77;13.67;;;6.40;99.90;;;;;;5065552;28;20437;-49
2022/01/18 04:00:17;;;;;;;27.03;14.30;;;6.30;99.90;;;;;;5060326;28;20834;-47
2022/01/18 04:02:42;;;;;;;24.07;14.77;;;6.40;99.90;;;;;;5064691;28;20458;-49
2022/01/18 04:05:09;;;;;;;21.30;12.60;;;6.50;99.90;;;;;;5061072;28;20421;-48
2022/01/18 04:07:34;;;;;;;23.83;13.20;;;6.40;99.90;;;;;;5064622;28;20211;-49
2022/01/18 04:10:00;;;;;;;21.03;13.43;;;6.30;99.90;;;;;;5064243;28;20465;-51
2022/01/18 04:12:26;;;;;;;22.03;13.70;;;6.30;99.90;;;;;;5061822;28;20205;-50
2022/01/18 04:14:53;;;;;;;25.57;15.17;;;6.20;99.90;;;;;;5064375;28;20550;-50
2022/01/18 04:28:12;;;;;;;23.90;16.40;;;5.90;99.90;;;;;;5062292;28;20476;-48
2022/01/18 04:30:38;;;;;;;27.17;14.53;;;5.70;99.90;;;;;;5064187;28;20452;-52
2022/01/18 04:33:04;;;;;;;26.10;15.30;;;5.70;99.90;;;;;;5059728;28;20926;-50
2022/01/18 04:35:29;;;;;;;26.77;17.37;;;5.80;99.90;;;;;;5062257;28;20176;-49
2022/01/18 04:37:55;;;;;;;30.93;16.87;;;5.80;99.90;;;;;;5045444;28;20187;-48
2022/01/18 04:40:27;;;;;;;29.80;16.30;;;5.90;99.90;;;;;;5061988;28;20496;-49
2022/01/18 04:50:47;;;;;;;24.57;15.70;;;6.10;99.90;;;;;;5062651;28;20459;-48
2022/01/18 04:53:12;;;;;;;25.67;16.03;;;6.30;99.90;;;;;;5050007;28;20422;-50
2022/01/18 04:55:38;;;;;;;27.97;17.10;;;6.30;99.90;;;;;;5060091;28;20216;-48
2022/01/18 04:58:04;;;;;;;22.83;14.70;;;6.20;99.90;;;;;;5060398;28;20849;-47
2022/01/18 05:00:29;;;;;;;24.30;15.87;;;6.20;99.90;;;;;;5062139;28;20775;-49
2022/01/18 05:02:55;;;;;;;25.17;16.00;;;6.30;99.90;;;;;;5059798;28;20180;-48
2022/01/18 05:05:26;;;;;;;22.63;14.43;;;6.30;99.90;;;;;;5062874;28;20226;-52
2022/01/18 05:07:55;;;;;;;27.20;16.90;;;6.40;99.90;;;;;;5046487;28;20218;-47
2022/01/18 05:10:23;;;;;;;28.33;17.17;;;6.40;99.90;;;;;;5058348;28;20481;-49
2022/01/18 05:12:52;;;;;;;24.27;14.93;;;6.30;99.90;;;;;;5050956;28;20424;-50
2022/01/18 05:15:43;;;;;;;26.97;16.97;;;6.50;99.90;;;;;;5057632;28;20437;-47
2022/01/18 05:23:06;;;;;;;24.00;14.80;;;6.40;99.90;;;;;;5059540;28;20437;-50
2022/01/18 05:25:33;;;;;;;26.37;15.70;;;6.40;99.90;;;;;;5064526;28;20427;-49
2022/01/18 05:28:01;;;;;;;31.20;16.70;;;6.20;99.90;;;;;;5059111;28;20199;-49
2022/01/18 05:30:28;;;;;;;28.73;18.03;;;6.20;99.90;;;;;;5064397;28;20449;-50
2022/01/18 05:32:54;;;;;;;23.43;15.07;;;6.20;99.90;;;;;;5060032;28;20428;-48
2022/01/18 05:35:20;;;;;;;25.13;15.30;;;6.40;99.90;;;;;;5055921;28;20424;-48
2022/01/18 05:37:47;;;;;;;23.40;15.20;;;6.30;99.90;;;;;;5062301;28;20904;-50
2022/01/18 05:40:14;;;;;;;27.17;16.40;;;6.30;99.90;;;;;;5058743;28;20449;-47
2022/01/18 05:42:39;;;;;;;25.67;16.73;;;6.20;99.90;;;;;;5050604;28;20455;-52
2022/01/18 05:45:06;;;;;;;26.30;15.93;;;6.00;99.90;;;;;;5060949;28;20436;-48
2022/01/18 05:47:33;;;;;;;26.30;15.00;;;6.10;99.90;;;;;;5060410;28;20195;-51
2022/01/18 05:49:59;;;;;;;28.07;15.77;;;6.10;99.90;;;;;;5062145;28;20477;-52
2022/01/18 05:52:24;;;;;;;21.87;14.10;;;6.10;99.90;;;;;;5047162;28;20866;-50
2022/01/18 05:54:51;;;;;;;25.00;15.47;;;6.10;99.90;;;;;;5060847;28;20179;-48
2022/01/18 05:57:16;;;;;;;24.90;15.83;;;6.10;99.90;;;;;;5059546;28;20880;-51
2022/01/18 05:59:45;;;;;;;26.70;17.00;;;6.00;99.90;;;;;;5061463;28;20471;-46
2022/01/18 06:02:19;;;;;;;28.40;17.03;;;6.10;99.90;;;;;;5059390;28;20171;-47
2022/01/18 06:07:30;;;;;;;30.77;15.73;;;6.10;99.90;;;;;;5061642;28;20483;-50
2022/01/18 06:09:56;;;;;;;24.97;15.07;;;5.90;99.90;;;;;;5046145;28;20460;-52
2022/01/18 06:12:29;;;;;;;27.10;15.90;;;6.20;99.90;;;;;;5060820;28;20480;-50
2022/01/18 06:14:55;;;;;;;26.97;15.97;;;6.20;99.90;;;;;;5061099;28;20437;-50
2022/01/18 06:17:20;;;;;;;26.90;16.20;;;6.30;99.90;;;;;;5058558;28;20441;-48
2022/01/18 06:19:46;;;;;;;27.20;16.07;;;6.30;99.90;;;;;;5061901;28;20842;-48
2022/01/18 06:22:12;;;;;;;23.07;15.47;;;6.30;99.90;;;;;;5044459;28;20179;-49
2022/01/18 06:24:37;;;;;;;26.30;16.57;;;6.20;99.90;;;;;;5062515;28;20183;-48
2022/01/18 06:27:03;;;;;;;30.70;16.93;;;6.00;99.90;;;;;;5059985;28;20183;-50
2022/01/18 06:29:29;;;;;;;25.47;16.60;;;6.10;99.90;;;;;;5059787;28;20206;-48
2022/01/18 06:31:54;;;;;;;25.30;15.30;;;6.10;99.90;;;;;;5061678;28;20242;-49
2022/01/18 06:34:20;;;;;;;28.63;17.80;;;6.10;99.90;;;;;;5055186;28;20198;-49
2022/01/18 06:36:45;;;;;;;26.70;16.57;;;6.20;99.90;;;;;;5060477;28;20191;-53
2022/01/18 06:39:11;;;;;;;28.03;15.73;;;6.20;99.90;;;;;;5059268;28;20285;-48
2022/01/18 06:41:38;;;;;;;27.60;18.43;;;6.30;99.90;;;;;;5061290;28;20217;-49
2022/01/18 06:44:04;;;;;;;28.23;16.43;;;6.30;99.90;;;;;;5059867;28;20422;-51
2022/01/18 06:46:30;;;;;;;31.70;16.03;;;6.20;99.90;;;;;;5060059;28;20447;-47
2022/01/18 06:48:55;;;;;;;27.20;18.90;;;6.40;99.90;;;;;;5050875;28;20458;-47
2022/01/18 06:51:21;;;;;;;30.03;17.93;;;6.40;99.90;;;;;;5056631;28;20226;-50
2022/01/18 06:53:48;;;;;;;26.10;18.33;;;6.30;99.90;;;;;;5047835;28;20197;-50
2022/01/18 06:56:15;;;;;;;28.90;18.47;;;6.20;99.90;;;;;;5060570;28;20788;-50
2022/01/18 06:58:41;;;;;;;28.20;17.67;;;6.20;99.90;;;;;;5060479;28;20449;-48
2022/01/18 07:01:09;;;;;;;29.60;18.03;;;6.10;99.90;;;;;;5066418;28;20441;-48
2022/01/18 07:03:34;;;;;;;28.53;18.70;;;6.00;99.90;;;;;;5060072;28;20515;-50
2022/01/18 07:06:00;;;;;;;30.70;18.20;;;6.10;99.90;;;;;;5067067;28;20420;-47
2022/01/18 07:08:26;;;;;;;31.40;19.27;;;6.20;99.90;;;;;;5063880;28;20249;-50
2022/01/18 07:10:51;;;;;;;33.13;20.40;;;6.40;99.90;;;;;;5064448;28;20186;-49
2022/01/18 07:13:17;;;;;;;35.10;20.43;;;6.50;99.90;;;;;;5061957;28;20271;-49
2022/01/18 07:15:42;;;;;;;26.40;16.97;;;6.40;99.90;;;;;;5061731;28;20566;-48
2022/01/18 07:18:10;;;;;;;34.77;18.53;;;6.30;99.90;;;;;;5064902;28;20185;-47
2022/01/18 07:20:36;;;;;;;27.50;18.80;;;6.20;99.90;;;;;;5062900;28;20892;-48
2022/01/18 07:23:02;;;;;;;33.53;22.17;;;6.00;99.90;;;;;;5048898;28;20449;-48
2022/01/18 07:25:28;;;;;;;33.47;19.30;;;5.90;99.90;;;;;;5062060;28;20480;-50
2022/01/18 07:27:53;;;;;;;27.87;18.73;;;6.10;99.90;;;;;;5044185;28;20885;-47
2022/01/18 07:30:19;;;;;;;26.90;18.73;;;6.20;99.90;;;;;;5067627;28;20203;-49
2022/01/18 07:32:45;;;;;;;30.47;19.93;;;6.50;99.90;;;;;;5060999;28;20228;-48
2022/01/18 07:35:12;;;;;;;32.43;20.10;;;6.60;99.90;;;;;;5062794;28;20219;-48
2022/01/18 07:37:38;;;;;;;33.20;19.40;;;6.70;99.90;;;;;;5063073;28;20178;-51
2022/01/18 07:40:05;;;;;;;29.07;17.20;;;6.90;99.90;;;;;;5046204;28;20441;-50
2022/01/18 07:42:31;;;;;;;31.60;18.67;;;6.90;99.90;;;;;;5064987;28;20465;-49
2022/01/18 07:44:57;;;;;;;24.70;16.87;;;6.80;99.90;;;;;;5061023;28;20465;-47
2022/01/18 07:47:23;;;;;;;29.63;19.17;;;6.90;99.90;;;;;;5065966;28;20427;-48
2022/01/18 07:49:49;;;;;;;33.27;18.63;;;7.00;99.90;;;;;;5062267;28;20253;-49
2022/01/18 07:52:18;;;;;;;31.90;18.50;;;7.10;99.90;;;;;;5048864;28;20759;-49
2022/01/18 07:54:44;;;;;;;29.07;18.73;;;7.20;99.90;;;;;;5062749;28;20409;-50
2022/01/18 07:57:12;;;;;;;28.43;18.47;;;7.30;99.90;;;;;;5061512;28;20449;-50
2022/01/18 07:59:37;;;;;;;36.70;21.27;;;7.30;99.90;;;;;;5060513;28;20461;-48
2022/01/18 08:02:03;;;;;;;29.37;17.70;;;7.30;99.90;;;;;;5061438;28;20857;-49
2022/01/18 08:04:29;;;;;;;30.40;18.73;;;7.20;99.90;;;;;;5050407;28;20583;-50
2022/01/18 08:06:54;;;;;;;29.90;20.00;;;7.30;99.90;;;;;;5063406;28;20232;-48
2022/01/18 08:09:20;;;;;;;31.90;18.50;;;7.40;99.90;;;;;;5060547;28;20233;-49
2022/01/18 08:11:47;;;;;;;32.63;20.10;;;7.40;99.90;;;;;;5066810;28;20722;-49
2022/01/18 08:14:14;;;;;;;28.70;19.93;;;7.50;99.90;;;;;;5059360;28;20190;-51
2022/01/18 08:17:00;;;;;;;34.03;20.53;;;7.50;99.90;;;;;;5052634;28;20456;-47
2022/01/18 08:19:30;;;;;;;34.63;18.37;;;7.60;99.90;;;;;;5045559;28;20464;-51
2022/01/18 08:21:55;;;;;;;32.53;18.73;;;7.60;99.90;;;;;;5061249;28;20441;-51
2022/01/18 08:24:21;;;;;;;32.53;20.67;;;7.60;99.90;;;;;;5065338;28;20413;-50
2022/01/18 08:26:47;;;;;;;26.50;18.60;;;7.60;99.90;;;;;;5043114;28;20598;-50
2022/01/18 08:29:12;;;;;;;27.07;18.03;;;7.30;99.90;;;;;;5062761;28;20299;-51
2022/01/18 08:31:39;;;;;;;27.50;17.27;;;7.40;99.90;;;;;;5063547;28;20191;-48
2022/01/18 08:34:05;;;;;;;24.73;16.40;;;7.50;99.90;;;;;;5058253;28;20195;-48
2022/01/18 08:36:30;;;;;;;28.30;18.37;;;7.60;99.90;;;;;;5062849;28;20438;-47
2022/01/18 08:38:56;;;;;;;27.23;18.07;;;7.40;99.90;;;;;;5058750;28;20698;-48
2022/01/18 08:41:22;;;;;;;32.40;18.97;;;7.20;99.90;;;;;;5066079;28;20203;-49
2022/01/18 08:43:48;;;;;;;26.53;17.23;;;7.10;99.90;;;;;;5061001;28;20525;-48
2022/01/18 08:46:14;;;;;;;34.30;16.80;;;7.10;99.90;;;;;;5063807;28;20568;-48
2022/01/18 08:48:40;;;;;;;27.50;18.10;;;7.00;99.90;;;;;;5065812;28;20467;-50
2022/01/18 08:51:06;;;;;;;35.53;20.30;;;7.10;99.90;;;;;;5061513;28;20194;-51
2022/01/18 08:53:31;;;;;;;28.53;18.60;;;7.20;99.90;;;;;;5062078;28;20611;-50
2022/01/18 08:55:57;;;;;;;26.53;17.33;;;7.10;99.90;;;;;;5059969;28;20422;-50
2022/01/18 08:58:23;;;;;;;29.30;18.03;;;7.10;99.90;;;;;;5060868;28;20743;-53
2022/01/18 09:00:49;;;;;;;34.47;19.73;;;7.00;99.90;;;;;;5065693;28;20199;-50
2022/01/18 09:03:15;;;;;;;29.93;17.87;;;7.10;99.90;;;;;;5059753;28;21097;-48
2022/01/18 09:05:43;;;;;;;26.70;17.80;;;7.30;99.90;;;;;;5066336;28;20421;-48
2022/01/18 09:08:11;;;;;;;30.13;18.20;;;7.50;99.90;;;;;;5061561;28;20461;-51
2022/01/18 09:10:37;;;;;;;31.90;20.73;;;7.60;99.90;;;;;;5050130;28;20453;-49
2022/01/18 09:13:03;;;;;;;31.80;20.10;;;7.80;99.90;;;;;;5064370;28;20425;-51
2022/01/18 09:15:29;;;;;;;27.60;19.07;;;7.90;99.90;;;;;;5057802;28;20422;-52
2022/01/18 09:17:55;;;;;;;33.37;19.30;;;7.90;99.90;;;;;;5061282;28;20262;-51
2022/01/18 09:20:20;;;;;;;33.77;20.43;;;7.90;99.90;;;;;;5059879;28;20456;-50
2022/01/18 09:22:52;;;;;;;40.47;20.20;;;7.70;99.90;;;;;;5062051;28;20270;-50
2022/01/18 09:25:30;;;;;;;31.03;20.57;;;7.70;99.90;;;;;;5063239;28;20628;-52
2022/01/18 09:27:57;;;;;;;35.07;18.40;;;7.80;99.90;;;;;;5062235;28;20469;-51
2022/01/18 09:30:26;;;;;;;30.03;17.83;;;8.00;99.90;;;;;;5065290;28;20485;-51
2022/01/18 09:32:52;;;;;;;29.47;19.53;;;8.20;99.90;;;;;;5061484;28;20845;-51
2022/01/18 09:35:18;;;;;;;31.20;19.90;;;8.20;99.90;;;;;;5063581;28;20432;-49
2022/01/18 09:37:45;;;;;;;32.73;19.83;;;8.20;99.90;;;;;;5063924;28;20434;-51
2022/01/18 09:40:14;;;;;;;34.33;20.50;;;8.20;99.90;;;;;;5058794;28;20536;-48
2022/01/18 09:42:41;;;;;;;32.57;18.90;;;8.10;99.90;;;;;;5063941;28;20468;-51
2022/01/18 09:45:09;;;;;;;27.00;18.53;;;8.20;99.90;;;;;;5059565;28;20700;-50
2022/01/18 09:47:36;;;;;;;32.00;19.20;;;8.10;99.90;;;;;;5056197;28;20902;-48
2022/01/18 09:50:03;;;;;;;30.30;18.27;;;8.30;99.90;;;;;;5065053;28;20436;-49
2022/01/18 09:52:29;;;;;;;34.70;20.17;;;8.30;99.90;;;;;;5059996;28;20430;-51
2022/01/18 09:54:54;;;;;;;34.50;20.97;;;8.30;99.90;;;;;;5060649;28;20479;-49
2022/01/18 09:57:20;;;;;;;29.20;18.60;;;8.40;99.90;;;;;;5060312;28;20293;-53
2022/01/18 09:59:45;;;;;;;29.50;19.40;;;8.40;99.90;;;;;;5061911;28;20669;-50
2022/01/18 10:02:11;;;;;;;28.73;18.57;;;8.40;99.90;;;;;;5060401;28;20183;-51
2022/01/18 10:04:42;;;;;;;33.07;19.90;;;8.50;99.90;;;;;;5059471;28;20754;-50
2022/01/18 10:07:08;;;;;;;27.50;17.73;;;8.50;99.90;;;;;;5063553;28;20177;-51
2022/01/18 10:09:34;;;;;;;32.07;17.60;;;8.50;99.90;;;;;;5044276;28;20471;-54
2022/01/18 10:12:10;;;;;;;32.73;17.63;;;8.40;99.90;;;;;;5061681;28;20478;-52
2022/01/18 10:14:37;;;;;;;27.00;17.77;;;8.40;99.90;;;;;;5061197;28;20937;-52
2022/01/18 10:17:05;;;;;;;25.00;16.80;;;8.50;99.90;;;;;;5061483;28;20791;-48
2022/01/18 10:19:32;;;;;;;27.67;18.67;;;8.60;99.90;;;;;;5060909;28;20458;-54
2022/01/18 10:22:12;;;;;;;27.33;18.90;;;8.70;99.90;;;;;;5060425;28;20433;-51
2022/01/18 10:24:39;;;;;;;24.40;15.27;;;8.80;99.90;;;;;;5062124;28;20425;-50
2022/01/18 10:27:05;;;;;;;25.97;15.63;;;8.80;99.90;;;;;;5058159;28;20469;-51
2022/01/18 10:29:37;;;;;;;31.63;18.33;;;8.90;99.90;;;;;;5057303;28;20493;-50
2022/01/18 10:32:15;;;;;;;23.40;14.80;;;9.10;99.90;;;;;;5064308;28;20497;-48
2022/01/18 10:37:28;;;;;;;30.27;16.80;;;9.00;99.90;;;;;;5059531;28;20442;-53
2022/01/18 10:39:57;;;;;;;22.87;15.43;;;8.90;99.90;;;;;;5061150;28;20551;-51
2022/01/18 10:42:43;;;;;;;24.50;15.23;;;8.70;99.90;;;;;;5059129;28;20482;-51
2022/01/18 10:45:27;;;;;;;20.00;14.30;;;9.00;99.90;;;;;;5058581;28;20426;-49
2022/01/18 10:48:25;;;;;;;21.87;13.70;;;9.10;99.90;;;;;;5064133;28;20457;-53
2022/01/18 10:50:50;;;;;;;25.43;15.13;;;9.20;99.90;;;;;;5015692;28;20441;-49
2022/01/18 10:53:21;;;;;;;25.37;15.17;;;9.30;99.90;;;;;;5059763;28;20435;-50
2022/01/18 10:55:50;;;;;;;25.20;14.87;;;9.30;99.90;;;;;;5061410;28;20543;-49
2022/01/18 10:58:19;;;;;;;23.80;14.33;;;9.30;99.90;;;;;;5059466;28;20520;-48
2022/01/18 11:00:46;;;;;;;22.73;12.33;;;9.40;99.90;;;;;;5062094;28;20443;-50
2022/01/18 11:03:11;;;;;;;19.77;14.40;;;9.50;99.90;;;;;;5058776;28;20429;-52
2022/01/18 11:05:41;;;;;;;20.70;12.60;;;9.40;99.90;;;;;;5058995;28;20422;-49
2022/01/18 11:08:07;;;;;;;20.70;13.00;;;9.40;99.90;;;;;;5060417;28;20528;-50
2022/01/18 11:10:34;;;;;;;24.57;13.97;;;9.50;99.90;;;;;;5056816;28;20489;-48
2022/01/18 11:13:17;;;;;;;16.47;12.40;;;9.50;99.90;;;;;;5061947;28;21039;-53
2022/01/18 11:15:46;;;;;;;21.43;13.00;;;9.70;99.90;;;;;;5059489;28;20457;-50
2022/01/18 11:18:25;;;;;;;13.80;9.73;;;9.80;99.90;;;;;;5058865;28;20432;-48
2022/01/18 11:20:52;;;;;;;14.53;10.10;;;9.80;99.90;;;;;;5046570;28;20441;-48
2022/01/18 11:23:21;;;;;;;15.23;9.90;;;9.80;99.90;;;;;;5057736;28;20518;-48
2022/01/18 11:25:49;;;;;;;13.13;9.33;;;9.70;99.90;;;;;;5060797;28;20429;-47
2022/01/18 11:28:15;;;;;;;17.93;9.40;;;9.80;99.90;;;;;;5058444;28;20556;-49
2022/01/18 11:30:43;;;;;;;16.57;10.23;;;9.70;99.90;;;;;;5061238;28;20557;-48
2022/01/18 11:33:14;;;;;;;15.60;8.30;;;9.80;99.90;;;;;;5061862;28;20460;-51
2022/01/18 11:36:02;;;;;;;16.57;9.20;;;9.70;99.90;;;;;;5056720;28;20430;-53
2022/01/18 11:38:42;;;;;;;22.90;8.97;;;9.70;99.90;;;;;;5059604;28;20974;-49
2022/01/18 11:41:30;;;;;;;11.33;8.43;;;9.90;99.90;;;;;;5059682;28;20508;-48
2022/01/18 11:43:57;;;;;;;14.97;8.20;;;9.90;99.90;;;;;;5055452;28;20434;-47
2022/01/18 11:46:34;;;;;;;10.63;7.87;;;10.00;99.90;;;;;;5050301;28;20456;-50
2022/01/18 11:49:09;;;;;;;11.87;7.90;;;9.90;99.90;;;;;;5062822;28;20470;-49
2022/01/18 11:51:50;;;;;;;11.67;7.07;;;10.10;99.90;;;;;;5061257;28;20474;-48
2022/01/18 11:54:24;;;;;;;13.43;8.33;;;10.20;99.90;;;;;;5062512;28;20437;-52
2022/01/18 11:56:49;;;;;;;11.50;6.97;;;10.20;99.90;;;;;;5062969;28;20509;-47
2022/01/18 11:59:18;;;;;;;11.90;7.00;;;10.30;99.90;;;;;;5059948;28;20575;-49
2022/01/18 12:01:54;;;;;;;11.80;7.43;;;10.40;99.90;;;;;;5065545;28;20284;-49
2022/01/18 12:04:45;;;;;;;8.97;5.63;;;10.40;99.90;;;;;;5060060;28;20953;-49
2022/01/18 12:07:31;;;;;;;10.87;5.50;;;10.50;99.90;;;;;;5063327;28;20656;-51
2022/01/18 12:09:56;;;;;;;7.37;5.23;;;10.50;99.90;;;;;;5064198;28;20437;-47
2022/01/18 12:12:40;;;;;;;8.73;4.63;;;10.50;99.90;;;;;;5063339;28;20457;-49
2022/01/18 12:15:15;;;;;;;7.30;4.33;;;10.30;99.90;;;;;;5062990;28;20175;-51
2022/01/18 12:17:48;;;;;;;5.70;3.77;;;10.30;99.90;;;;;;5060399;28;20440;-48
2022/01/18 12:20:35;;;;;;;4.80;3.83;;;10.40;99.90;;;;;;5063242;28;20476;-47
2022/01/18 12:23:08;;;;;;;6.33;3.17;;;10.40;99.90;;;;;;5061727;28;20413;-51
2022/01/18 12:25:57;;;;;;;7.93;3.13;;;10.40;99.90;;;;;;5057751;28;20422;-51
2022/01/18 12:28:55;;;;;;;7.13;3.87;;;10.20;99.90;;;;;;5051123;28;20465;-48
2022/01/18 12:34:34;;;;;;;7.27;2.90;;;10.00;99.90;;;;;;5060417;28;20441;-50
2022/01/18 12:37:13;;;;;;;8.30;2.93;;;9.90;99.90;;;;;;5065430;28;20761;-49
2022/01/18 12:45:09;;;;;;;10.43;4.50;;;9.80;99.90;;;;;;5061498;28;20955;-49
2022/01/18 12:47:36;;;;;;;7.50;3.50;;;9.70;99.90;;;;;;5060250;28;20421;-50
2022/01/18 12:50:06;;;;;;;6.30;3.70;;;9.90;99.90;;;;;;5061642;28;20489;-52
2022/01/18 12:52:47;;;;;;;6.43;3.60;;;9.80;99.90;;;;;;5066646;28;20464;-48
2022/01/18 12:55:32;;;;;;;6.50;3.10;;;9.80;99.90;;;;;;5041571;28;20464;-48
2022/01/18 12:58:07;;;;;;;9.50;3.13;;;9.80;99.90;;;;;;5047551;28;20445;-50
2022/01/18 13:00:44;;;;;;;3.60;2.33;;;9.80;99.90;;;;;;5062383;28;20518;-47
2022/01/18 13:03:16;;;;;;;3.50;2.20;;;9.70;99.90;;;;;;5058085;28;20854;-49
2022/01/18 13:05:43;;;;;;;5.63;2.77;;;9.70;99.90;;;;;;5065105;28;20590;-57
2022/01/18 13:08:11;;;;;;;7.30;2.90;;;9.60;99.90;;;;;;5060875;28;20469;-50
2022/01/18 13:10:40;;;;;;;4.10;2.43;;;9.50;99.90;;;;;;5060562;28;20445;-49
2022/01/18 13:13:07;;;;;;;3.30;2.37;;;9.60;99.90;;;;;;5063173;28;21037;-49
2022/01/18 13:15:48;;;;;;;2.50;1.80;;;9.50;99.90;;;;;;5058455;28;20495;-49
2022/01/18 13:26:35;;;;;;;4.20;2.37;;;9.30;99.90;;;;;;5064005;28;20418;-49
2022/01/18 13:29:25;;;;;;;9.80;2.53;;;9.20;99.90;;;;;;5061205;28;20479;-49
2022/01/18 13:32:15;;;;;;;3.20;2.50;;;9.10;99.90;;;;;;5059208;28;20429;-48
2022/01/18 13:34:43;;;;;;;2.57;2.10;;;9.10;99.90;;;;;;5061993;28;20410;-49
2022/01/18 13:37:15;;;;;;;1.93;1.70;;;9.10;99.90;;;;;;5060727;28;20795;-50
2022/01/18 13:39:52;;;;;;;4.37;1.50;;;9.10;99.90;;;;;;5060189;28;20445;-51
2022/01/18 13:42:33;;;;;;;3.80;1.77;;;9.10;99.90;;;;;;5063518;28;20480;-48
2022/01/18 13:45:19;;;;;;;3.33;1.93;;;9.20;99.90;;;;;;5058584;28;20918;-48
2022/01/18 13:47:55;;;;;;;4.90;2.73;;;9.30;99.90;;;;;;5062503;28;20565;-48
2022/01/18 13:50:37;;;;;;;4.13;2.73;;;9.30;99.90;;;;;;5060379;28;20772;-49
2022/01/18 13:53:28;;;;;;;4.40;2.87;;;9.40;99.90;;;;;;5058060;28;20426;-48
2022/01/18 13:56:01;;;;;;;4.57;3.50;;;9.40;99.90;;;;;;5052039;28;20490;-48
2022/01/18 13:58:33;;;;;;;4.93;2.67;;;9.40;99.90;;;;;;5062420;28;21040;-51
2022/01/18 14:01:26;;;;;;;3.10;2.60;;;9.40;99.90;;;;;;5058516;28;20430;-48
2022/01/18 14:04:01;;;;;;;3.03;2.60;;;9.40;99.90;;;;;;5057733;28;20473;-48
2022/01/18 14:06:38;;;;;;;5.33;2.77;;;9.30;99.90;;;;;;5055409;28;20422;-50
2022/01/18 14:09:04;;;;;;;3.20;2.60;;;9.30;99.90;;;;;;5059392;28;20554;-50
2022/01/18 14:11:36;;;;;;;5.53;3.00;;;9.20;99.90;;;;;;5058630;28;20444;-51
2022/01/18 14:14:24;;;;;;;5.93;3.40;;;9.20;99.90;;;;;;5055153;28;20423;-50
2022/01/18 14:16:53;;;;;;;5.90;3.77;;;9.30;99.90;;;;;;5063171;28;20417;-51
2022/01/18 14:19:37;;;;;;;5.60;3.57;;;9.30;99.90;;;;;;5061667;28;20461;-50
2022/01/18 14:22:11;;;;;;;6.33;3.83;;;9.20;99.90;;;;;;5060700;28;20440;-54